createdAt,value
2018-12-11T00:01:41.194Z,22.77
2018-12-11T00:03:44.681Z,27.07
2018-12-11T00:05:47.945Z,18.30
2018-12-11T00:07:51.916Z,25.60
2018-12-11T00:09:55.483Z,15.85
2018-12-11T00:11:58.986Z,16.37
2018-12-11T00:14:02.287Z,15.57
2018-12-11T00:16:06.182Z,14.53
2018-12-11T00:18:09.450Z,20.03
2018-12-11T00:20:13.362Z,17.62
2018-12-11T00:22:16.973Z,19.90
2018-12-11T00:24:20.456Z,13.00
2018-12-11T00:26:24.279Z,25.25
2018-12-11T00:28:27.771Z,18.15
2018-12-11T00:30:31.042Z,23.93
2018-12-11T00:32:34.979Z,12.78
2018-12-11T00:34:38.182Z,17.70
2018-12-11T00:36:41.710Z,17.62
2018-12-11T00:38:45.224Z,17.02
2018-12-11T00:40:48.418Z,17.33
2018-12-11T00:42:52.026Z,27.55
2018-12-11T00:44:55.618Z,17.07
2018-12-11T00:46:59.087Z,16.65
2018-12-11T00:49:02.603Z,25.45
2018-12-11T00:51:07.145Z,21.57
2018-12-11T00:53:11.064Z,23.47
2018-12-11T00:55:15.380Z,12.73
2018-12-11T00:57:18.860Z,30.55
2018-12-11T00:59:22.168Z,18.48
2018-12-11T01:01:25.410Z,20.33
2018-12-11T01:03:28.898Z,21.80
2018-12-11T01:05:32.460Z,24.35
2018-12-11T01:07:35.672Z,21.60
2018-12-11T01:09:39.571Z,17.77
2018-12-11T01:11:42.801Z,13.13
2018-12-11T01:13:46.327Z,20.03
2018-12-11T01:15:50.194Z,14.53
2018-12-11T01:17:53.707Z,20.90
2018-12-11T01:19:57.256Z,21.00
2018-12-11T01:22:00.767Z,16.52
2018-12-11T01:24:04.693Z,20.70
2018-12-11T01:26:08.183Z,22.05
2018-12-11T01:28:11.370Z,19.17
2018-12-11T01:30:15.395Z,18.70
2018-12-11T01:32:18.862Z,18.80
2018-12-11T01:34:23.005Z,18.00
2018-12-11T01:36:27.162Z,11.38
2018-12-11T01:38:30.752Z,17.67
2018-12-11T01:40:33.940Z,13.48
2018-12-11T01:42:37.562Z,21.27
2018-12-11T01:44:41.035Z,17.50
2018-12-11T01:46:44.218Z,11.40
2018-12-11T01:48:47.522Z,21.07
2018-12-11T01:50:51.392Z,12.75
2018-12-11T01:52:54.923Z,14.85
2018-12-11T01:54:58.442Z,18.75
2018-12-11T01:57:01.630Z,22.85
2018-12-11T01:59:04.822Z,20.43
2018-12-11T02:01:08.061Z,27.37
2018-12-11T02:03:11.608Z,10.10
2018-12-11T02:05:15.082Z,21.65
2018-12-11T02:07:18.323Z,20.20
2018-12-11T02:09:21.790Z,20.02
2018-12-11T02:11:25.580Z,19.80
2018-12-11T02:13:29.094Z,11.97
2018-12-11T02:15:32.570Z,14.30
2018-12-11T02:17:36.088Z,22.60
2018-12-11T02:19:40.678Z,24.32
2018-12-11T02:21:43.919Z,13.10
2018-12-11T02:23:47.418Z,15.08
2018-12-11T02:25:51.166Z,19.05
2018-12-11T02:27:54.654Z,30.68
2018-12-11T02:29:58.130Z,20.08
2018-12-11T02:32:01.671Z,16.12
2018-12-11T02:34:05.428Z,19.05
2018-12-11T02:36:09.002Z,18.45
2018-12-11T02:38:12.496Z,23.25
2018-12-11T02:40:15.971Z,13.53
2018-12-11T02:42:19.476Z,17.60
2018-12-11T02:44:23.666Z,20.48
2018-12-11T02:46:27.582Z,17.80
2018-12-11T02:48:30.789Z,10.90
2018-12-11T02:50:34.441Z,20.90
2018-12-11T02:52:38.066Z,20.35
2018-12-11T02:54:41.550Z,23.95
2018-12-11T02:56:45.018Z,23.42
2018-12-11T02:58:48.280Z,19.95
2018-12-11T03:00:51.458Z,19.10
2018-12-11T03:02:55.127Z,16.62
2018-12-11T03:04:58.340Z,21.00
2018-12-11T03:07:01.567Z,15.80
2018-12-11T03:09:07.552Z,20.33
2018-12-11T03:11:11.363Z,17.25
2018-12-11T03:13:14.834Z,21.40
2018-12-11T03:15:18.314Z,17.83
2018-12-11T03:17:21.911Z,17.02
2018-12-11T03:19:25.127Z,25.13
2018-12-11T03:21:29.287Z,16.73
2018-12-11T03:23:32.784Z,12.40
2018-12-11T03:25:36.280Z,17.80
2018-12-11T03:27:40.934Z,19.80
2018-12-11T03:29:44.830Z,23.12
2018-12-11T03:31:48.503Z,16.37
2018-12-11T03:33:52.454Z,21.12
2018-12-11T03:35:55.634Z,18.25
2018-12-11T03:37:58.877Z,18.43
2018-12-11T03:40:03.127Z,27.05
2018-12-11T03:42:07.427Z,19.65
2018-12-11T03:44:10.957Z,18.02
2018-12-11T03:46:14.885Z,15.95
2018-12-11T03:48:18.673Z,19.80
2018-12-11T03:50:22.208Z,18.17
2018-12-11T03:52:25.715Z,14.47
2018-12-11T03:54:29.167Z,19.42
2018-12-11T03:56:32.382Z,18.00
2018-12-11T03:58:36.099Z,16.90
2018-12-11T04:00:40.504Z,23.45
2018-12-11T04:02:43.711Z,17.53
2018-12-11T04:04:47.623Z,12.37
2018-12-11T04:06:50.875Z,14.30
2018-12-11T04:08:54.409Z,16.30
2018-12-11T04:10:57.865Z,15.85
2018-12-11T04:13:01.080Z,18.23
2018-12-11T04:15:06.045Z,16.73
2018-12-11T04:17:09.852Z,24.98
2018-12-11T04:19:13.307Z,14.50
2018-12-11T04:21:17.475Z,14.43
2018-12-11T04:23:21.223Z,20.23
2018-12-11T04:25:24.922Z,21.77
2018-12-11T04:27:28.793Z,13.75
2018-12-11T04:29:32.540Z,14.95
2018-12-11T04:31:36.336Z,16.87
2018-12-11T04:33:39.878Z,17.62
2018-12-11T04:35:44.751Z,13.50
2018-12-11T04:37:48.983Z,20.92
2018-12-11T04:39:52.511Z,17.95
2018-12-11T04:41:55.982Z,14.95
2018-12-11T04:43:59.458Z,21.03
2018-12-11T04:46:02.966Z,13.58
2018-12-11T04:48:06.574Z,15.63
2018-12-11T04:50:10.813Z,16.97
2018-12-11T04:52:14.363Z,17.85
2018-12-11T04:54:17.579Z,21.00
2018-12-11T04:56:21.870Z,16.82
2018-12-11T04:58:25.374Z,19.15
2018-12-11T05:00:28.593Z,10.85
2018-12-11T05:02:32.878Z,15.80
2018-12-11T05:04:36.402Z,11.43
2018-12-11T05:06:40.005Z,14.78
2018-12-11T05:08:43.635Z,11.75
2018-12-11T05:10:47.149Z,14.95
2018-12-11T05:12:51.065Z,13.70
2018-12-11T05:14:54.401Z,15.00
2018-12-11T05:16:57.947Z,13.88
2018-12-11T05:19:01.504Z,12.55
2018-12-11T05:21:05.050Z,12.33
2018-12-11T05:23:08.654Z,14.25
2018-12-11T05:25:12.146Z,15.80
2018-12-11T05:27:15.738Z,16.10
2018-12-11T05:29:19.250Z,12.68
2018-12-11T05:31:22.710Z,18.00
2018-12-11T05:33:26.194Z,15.97
2018-12-11T05:35:29.753Z,13.75
2018-12-11T05:37:33.126Z,14.70
2018-12-11T05:39:37.048Z,9.60
2018-12-11T05:41:40.311Z,13.53
2018-12-11T05:43:44.262Z,11.90
2018-12-11T05:45:48.225Z,8.63
2018-12-11T05:47:51.407Z,15.43
2018-12-11T05:49:54.888Z,18.40
2018-12-11T05:51:58.662Z,9.03
2018-12-11T05:54:02.406Z,12.80
2018-12-11T05:56:05.584Z,14.93
2018-12-11T05:58:08.794Z,8.13
2018-12-11T06:00:13.383Z,10.53
2018-12-11T06:02:17.335Z,11.50
2018-12-11T06:04:20.806Z,12.40
2018-12-11T06:06:24.592Z,10.23
2018-12-11T06:08:28.510Z,8.35
2018-12-11T06:10:32.810Z,5.80
2018-12-11T06:12:36.588Z,9.40
2018-12-11T06:14:40.122Z,11.05
2018-12-11T06:16:43.727Z,8.10
2018-12-11T06:18:47.234Z,8.88
2018-12-11T06:20:50.540Z,8.30
2018-12-11T06:22:54.010Z,14.45
2018-12-11T06:24:57.485Z,9.28
2018-12-11T06:27:00.795Z,10.13
2018-12-11T06:29:04.788Z,14.60
2018-12-11T06:31:08.910Z,9.95
2018-12-11T06:33:12.402Z,13.85
2018-12-11T06:35:15.993Z,6.53
2018-12-11T06:37:21.422Z,11.83
2018-12-11T06:39:24.940Z,12.40
2018-12-11T06:41:28.590Z,8.95
2018-12-11T06:43:32.087Z,13.65
2018-12-11T06:45:35.353Z,11.83
2018-12-11T06:47:38.894Z,12.68
2018-12-11T06:49:42.406Z,10.48
2018-12-11T06:51:45.900Z,8.78
2018-12-11T06:53:49.593Z,8.75
2018-12-11T06:55:53.094Z,7.80
2018-12-11T06:57:56.576Z,9.55
2018-12-11T06:59:59.962Z,10.50
2018-12-11T07:02:03.458Z,8.78
2018-12-11T07:04:07.077Z,14.63
2018-12-11T07:06:10.762Z,9.70
2018-12-11T07:08:17.562Z,9.87
2018-12-11T07:10:20.775Z,11.17
2018-12-11T07:12:24.827Z,5.28
2018-12-11T07:14:28.039Z,8.00
2018-12-11T07:16:31.571Z,4.90
2018-12-11T07:18:35.110Z,12.00
2018-12-11T07:20:40.954Z,12.43
2018-12-11T07:22:44.478Z,7.50
2018-12-11T07:24:47.962Z,12.78
2018-12-11T07:26:52.154Z,10.88
2018-12-11T07:28:55.640Z,9.80
2018-12-11T07:31:00.095Z,16.82
2018-12-11T07:33:04.184Z,9.15
2018-12-11T07:35:08.195Z,13.83
2018-12-11T07:37:11.728Z,11.88
2018-12-11T07:39:15.579Z,5.97
2018-12-11T07:41:18.824Z,6.22
2018-12-11T07:43:22.066Z,5.03
2018-12-11T07:45:25.573Z,7.05
2018-12-11T07:47:29.077Z,3.90
2018-12-11T07:49:32.604Z,9.45
2018-12-11T07:51:36.637Z,4.17
2018-12-11T07:53:40.144Z,12.15
2018-12-11T07:55:43.354Z,14.10
2018-12-11T07:57:47.186Z,6.45
2018-12-11T07:59:50.834Z,7.75
2018-12-11T08:01:54.486Z,7.78
2018-12-11T08:03:58.084Z,11.03
2018-12-11T08:06:01.565Z,6.53
2018-12-11T08:08:05.408Z,7.08
2018-12-11T08:10:09.616Z,10.72
2018-12-11T08:12:13.179Z,9.40
2018-12-11T08:14:16.747Z,7.78
2018-12-11T08:16:20.868Z,8.78
2018-12-11T08:18:24.767Z,8.28
2018-12-11T08:20:28.116Z,10.80
2018-12-11T08:22:31.614Z,11.10
2018-12-11T08:24:35.214Z,5.97
2018-12-11T08:26:39.063Z,6.95
2018-12-11T08:28:42.856Z,10.60
2018-12-11T08:30:46.480Z,7.50
2018-12-11T08:32:50.430Z,9.50
2018-12-11T08:34:53.963Z,8.95
2018-12-11T08:36:57.510Z,11.70
2018-12-11T08:39:01.518Z,8.80
2018-12-11T08:41:05.029Z,6.85
2018-12-11T08:43:08.548Z,8.25
2018-12-11T08:45:12.474Z,5.80
2018-12-11T08:47:16.230Z,11.00
2018-12-11T08:49:19.768Z,12.13
2018-12-11T08:51:23.317Z,12.37
2018-12-11T08:53:27.082Z,7.03
2018-12-11T08:55:30.584Z,11.70
2018-12-11T08:57:34.102Z,7.08
2018-12-11T08:59:37.636Z,9.23
2018-12-11T09:01:41.172Z,6.30
2018-12-11T09:03:44.676Z,4.70
2018-12-11T09:05:48.304Z,9.33
2018-12-11T09:07:52.026Z,7.50
2018-12-11T09:09:55.253Z,9.23
2018-12-11T09:11:59.880Z,10.85
2018-12-11T09:14:04.005Z,7.78
2018-12-11T09:16:07.490Z,4.10
2018-12-11T09:18:10.878Z,8.30
2018-12-11T09:20:14.450Z,14.10
2018-12-11T09:22:17.844Z,4.08
2018-12-11T09:24:21.375Z,5.65
2018-12-11T09:26:25.269Z,5.05
2018-12-11T09:28:28.738Z,5.58
2018-12-11T09:30:31.963Z,7.95
2018-12-11T09:32:35.167Z,5.80
2018-12-11T09:34:39.054Z,6.25
2018-12-11T09:36:42.838Z,5.62
2018-12-11T09:38:47.526Z,5.47
2018-12-11T09:40:51.001Z,12.15
2018-12-11T09:42:54.478Z,6.12
2018-12-11T09:44:57.848Z,11.10
2018-12-11T09:47:01.830Z,9.95
2018-12-11T09:49:05.692Z,7.00
2018-12-11T09:51:08.998Z,7.60
2018-12-11T09:53:12.548Z,3.92
2018-12-11T09:55:16.038Z,7.65
2018-12-11T09:57:19.788Z,8.30
2018-12-11T09:59:23.536Z,7.45
2018-12-11T10:01:27.455Z,7.60
2018-12-11T10:03:31.322Z,7.47
2018-12-11T10:05:35.010Z,5.15
2018-12-11T10:07:38.530Z,7.60
2018-12-11T10:09:42.049Z,6.67
2018-12-11T10:11:45.615Z,7.80
2018-12-11T10:13:48.827Z,6.90
2018-12-11T10:15:52.657Z,8.48
2018-12-11T10:17:55.846Z,7.67
2018-12-11T10:19:59.087Z,7.03
2018-12-11T10:22:03.260Z,6.15
2018-12-11T10:24:06.762Z,5.83
2018-12-11T10:26:10.770Z,5.95
2018-12-11T10:28:14.241Z,5.90
2018-12-11T10:30:17.437Z,2.80
2018-12-11T10:32:21.077Z,5.03
2018-12-11T10:34:24.595Z,8.75
2018-12-11T10:36:27.879Z,8.20
2018-12-11T10:38:31.731Z,7.00
2018-12-11T10:40:35.387Z,6.42
2018-12-11T10:42:38.897Z,6.28
2018-12-11T10:44:43.559Z,5.58
2018-12-11T10:46:47.197Z,5.85
2018-12-11T10:48:51.354Z,3.27
2018-12-11T10:50:54.571Z,9.57
2018-12-11T10:52:57.855Z,7.97
2018-12-11T10:55:01.349Z,6.15
2018-12-11T10:57:05.254Z,6.30
2018-12-11T10:59:10.273Z,4.08
2018-12-11T11:01:18.041Z,2.80
2018-12-11T11:03:21.267Z,9.53
2018-12-11T11:05:24.830Z,10.50
2018-12-11T11:07:28.982Z,3.47
2018-12-11T11:09:32.482Z,7.22
2018-12-11T11:11:36.231Z,6.50
2018-12-11T11:13:40.163Z,2.77
2018-12-11T11:15:43.919Z,4.53
2018-12-11T11:17:47.422Z,5.72
2018-12-11T11:19:51.015Z,5.87
2018-12-11T11:21:54.218Z,4.70
2018-12-11T11:23:57.424Z,3.00
2018-12-11T11:26:01.031Z,4.10
2018-12-11T11:28:04.911Z,2.70
2018-12-11T11:30:08.862Z,6.97
2018-12-11T11:32:12.407Z,3.92
2018-12-11T11:34:16.022Z,4.17
2018-12-11T11:36:19.554Z,4.55
2018-12-11T11:38:23.091Z,4.97
2018-12-11T11:40:27.302Z,3.75
2018-12-11T11:42:31.366Z,5.83
2018-12-11T11:44:35.008Z,6.10
2018-12-11T11:46:38.546Z,4.47
2018-12-11T11:48:41.752Z,5.80
2018-12-11T11:50:45.702Z,8.93
2018-12-11T11:52:49.818Z,6.70
2018-12-11T11:54:53.101Z,5.97
2018-12-11T11:56:56.402Z,5.20
2018-12-11T11:59:00.298Z,5.08
2018-12-11T12:01:04.317Z,5.13
2018-12-11T12:03:07.815Z,4.27
2018-12-11T12:05:11.750Z,5.70
2018-12-11T12:07:15.013Z,6.40
2018-12-11T12:09:18.559Z,5.00
2018-12-11T12:11:22.024Z,5.58
2018-12-11T12:13:25.270Z,6.30
2018-12-11T12:15:28.806Z,3.67
2018-12-11T12:17:32.824Z,4.42
2018-12-11T12:19:36.328Z,3.00
2018-12-11T12:21:39.806Z,5.00
2018-12-11T12:23:43.306Z,2.60
2018-12-11T12:25:46.800Z,5.50
2018-12-11T12:27:50.840Z,4.42
2018-12-11T12:29:54.097Z,4.87
2018-12-11T12:31:57.347Z,5.50
2018-12-11T12:34:01.130Z,3.20
2018-12-11T12:36:04.778Z,7.00
2018-12-11T12:38:08.291Z,3.30
2018-12-11T12:40:11.858Z,5.53
2018-12-11T12:42:15.412Z,4.85
2018-12-11T12:44:19.282Z,5.60
2018-12-11T12:46:22.811Z,2.70
2018-12-11T12:48:26.281Z,4.70
2018-12-11T12:50:29.907Z,5.78
2018-12-11T12:52:33.401Z,3.60
2018-12-11T12:54:36.930Z,5.70
2018-12-11T12:56:40.406Z,5.00
2018-12-11T12:58:43.594Z,5.47
2018-12-11T13:00:46.930Z,7.30
2018-12-11T13:02:50.878Z,7.35
2018-12-11T13:04:54.106Z,5.80
2018-12-11T13:06:57.670Z,3.67
2018-12-11T13:09:01.580Z,6.58
2018-12-11T13:11:05.518Z,4.03
2018-12-11T13:13:09.495Z,3.70
2018-12-11T13:15:13.685Z,5.00
2018-12-11T13:17:17.178Z,5.40
2018-12-11T13:19:20.682Z,3.98
2018-12-11T13:21:23.964Z,3.40
2018-12-11T13:23:28.295Z,8.80
2018-12-11T13:25:31.834Z,4.45
2018-12-11T13:27:35.139Z,5.40
2018-12-11T13:29:38.470Z,5.40
2018-12-11T13:31:42.818Z,5.30
2018-12-11T13:33:46.638Z,6.10
2018-12-11T13:35:50.406Z,7.03
2018-12-11T13:37:53.874Z,5.20
2018-12-11T13:39:57.663Z,4.65
2018-12-11T13:42:00.891Z,5.17
2018-12-11T13:44:05.090Z,5.57
2018-12-11T13:46:09.191Z,9.58
2018-12-11T13:48:13.019Z,5.90
2018-12-11T13:50:16.270Z,5.10
2018-12-11T13:52:19.989Z,7.53
2018-12-11T13:54:23.494Z,5.95
2018-12-11T13:56:26.719Z,3.33
2018-12-11T13:58:30.230Z,7.15
2018-12-11T14:00:34.035Z,8.63
2018-12-11T14:02:37.553Z,8.05
2018-12-11T14:04:41.083Z,4.35
2018-12-11T14:06:44.587Z,5.35
2018-12-11T14:08:48.155Z,6.42
2018-12-11T14:10:51.946Z,4.35
2018-12-11T14:12:55.474Z,4.97
2018-12-11T14:14:58.761Z,5.30
2018-12-11T14:17:02.298Z,2.77
2018-12-11T14:19:05.779Z,6.05
2018-12-11T14:21:09.034Z,4.57
2018-12-11T14:23:12.651Z,3.42
2018-12-11T14:25:16.233Z,4.40
2018-12-11T14:27:19.796Z,7.60
2018-12-11T14:29:23.275Z,5.10
2018-12-11T14:31:26.957Z,3.30
2018-12-11T14:33:30.519Z,3.02
2018-12-11T14:35:34.122Z,4.20
2018-12-11T14:37:37.630Z,6.08
2018-12-11T14:39:41.332Z,4.97
2018-12-11T14:41:45.316Z,4.47
2018-12-11T14:43:48.975Z,3.55
2018-12-11T14:45:52.570Z,8.20
2018-12-11T14:47:56.474Z,8.75
2018-12-11T14:49:59.998Z,5.83
2018-12-11T14:52:04.461Z,5.87
2018-12-11T14:54:08.246Z,5.45
2018-12-11T14:56:11.882Z,5.12
2018-12-11T14:58:15.400Z,3.95
2018-12-11T15:00:19.073Z,3.70
2018-12-11T15:02:22.553Z,5.58
2018-12-11T15:04:26.026Z,4.33
2018-12-11T15:06:30.190Z,8.35
2018-12-11T15:08:33.703Z,6.97
2018-12-11T15:10:37.717Z,6.83
2018-12-11T15:12:41.442Z,5.65
2018-12-11T15:14:44.953Z,5.22
2018-12-11T15:16:48.941Z,5.85
2018-12-11T15:18:52.992Z,4.40
2018-12-11T15:20:56.502Z,5.42
2018-12-11T15:23:00.057Z,6.70
2018-12-11T15:25:04.659Z,4.37
2018-12-11T15:27:08.178Z,4.47
2018-12-11T15:29:12.879Z,4.30
2018-12-11T15:31:16.504Z,4.90
2018-12-11T15:33:20.062Z,3.50
2018-12-11T15:35:23.618Z,4.00
2018-12-11T15:37:27.591Z,5.00
2018-12-11T15:39:36.013Z,4.10
2018-12-11T15:41:38.774Z,8.93
2018-12-11T15:43:41.994Z,5.37
2018-12-11T15:45:45.260Z,7.70
2018-12-11T15:47:49.109Z,4.72
2018-12-11T15:49:53.317Z,5.30
2018-12-11T15:51:56.535Z,4.20
2018-12-11T15:54:00.210Z,6.70
2018-12-11T15:56:04.831Z,4.12
2018-12-11T15:58:08.526Z,6.90
2018-12-11T16:00:13.027Z,5.08
2018-12-11T16:02:16.576Z,5.67
2018-12-11T16:04:20.056Z,9.38
2018-12-11T16:06:26.729Z,4.70
2018-12-11T16:08:30.708Z,3.83
2018-12-11T16:10:34.277Z,4.85
2018-12-11T16:12:38.422Z,7.97
2018-12-11T16:14:41.830Z,4.20
2018-12-11T16:16:45.385Z,6.58
2018-12-11T16:18:48.877Z,4.03
2018-12-11T16:20:52.453Z,4.10
2018-12-11T16:22:56.022Z,5.80
2018-12-11T16:25:00.725Z,7.42
2018-12-11T16:27:05.108Z,8.90
2018-12-11T16:29:09.008Z,4.42
2018-12-11T16:31:12.834Z,2.85
2018-12-11T16:33:16.451Z,3.98
2018-12-11T16:35:20.078Z,4.30
2018-12-11T16:37:24.037Z,5.67
2018-12-11T16:39:27.762Z,4.00
2018-12-11T16:41:31.461Z,3.42
2018-12-11T16:43:34.998Z,5.35
2018-12-11T16:45:39.008Z,6.28
2018-12-11T16:47:42.494Z,3.77
2018-12-11T16:49:46.442Z,6.65
2018-12-11T16:51:50.027Z,5.10
2018-12-11T16:53:53.538Z,2.55
2018-12-11T16:55:57.215Z,5.85
2018-12-11T16:58:00.792Z,3.40
2018-12-11T17:00:05.282Z,5.47
2018-12-11T17:02:09.293Z,8.50
2018-12-11T17:04:13.008Z,5.35
2018-12-11T17:06:16.238Z,4.97
2018-12-11T17:08:20.661Z,5.65
2018-12-11T17:10:24.168Z,4.85
2018-12-11T17:12:28.722Z,3.92
2018-12-11T17:14:32.271Z,4.12
2018-12-11T17:16:35.757Z,4.40
2018-12-11T17:18:39.454Z,6.40
2018-12-11T17:20:43.567Z,3.65
2018-12-11T17:22:47.178Z,5.50
2018-12-11T17:24:50.427Z,3.00
2018-12-11T17:26:54.575Z,7.30
2018-12-11T17:28:58.273Z,3.00
2018-12-11T17:31:01.751Z,6.25
2018-12-11T17:33:05.842Z,4.67
2018-12-11T17:35:09.762Z,4.50
2018-12-11T17:37:12.950Z,5.42
2018-12-11T17:39:16.227Z,4.33
2018-12-11T17:41:20.540Z,7.83
2018-12-11T17:43:24.142Z,7.10
2018-12-11T17:45:27.361Z,4.30
2018-12-11T17:47:31.166Z,2.95
2018-12-11T17:49:34.681Z,5.08
2018-12-11T17:51:37.940Z,6.10
2018-12-11T17:53:41.966Z,4.50
2018-12-11T17:55:45.267Z,4.90
2018-12-11T17:57:49.204Z,4.62
2018-12-11T17:59:53.559Z,3.90
2018-12-11T18:02:01.413Z,4.15
2018-12-11T18:04:05.355Z,5.95
2018-12-11T18:06:08.710Z,4.53
2018-12-11T18:08:12.266Z,6.60
2018-12-11T18:10:16.262Z,5.62
2018-12-11T18:12:20.498Z,5.22
2018-12-11T18:14:24.203Z,4.78
2018-12-11T18:16:27.722Z,9.03
2018-12-11T18:18:31.205Z,2.87
2018-12-11T18:20:34.426Z,5.80
2018-12-11T18:22:38.419Z,5.28
2018-12-11T18:24:41.667Z,3.27
2018-12-11T18:26:45.248Z,3.90
2018-12-11T18:28:48.803Z,3.27
2018-12-11T18:30:52.608Z,4.78
2018-12-11T18:32:55.946Z,6.75
2018-12-11T18:35:00.058Z,5.50
2018-12-11T18:37:04.000Z,3.00
2018-12-11T18:39:09.075Z,4.03
2018-12-11T18:41:13.130Z,7.10
2018-12-11T18:43:17.004Z,5.28
2018-12-11T18:45:20.482Z,3.42
2018-12-11T18:47:23.741Z,4.25
2018-12-11T18:49:26.978Z,3.30
2018-12-11T18:51:30.493Z,6.80
2018-12-11T18:53:34.068Z,4.87
2018-12-11T18:55:37.322Z,4.93
2018-12-11T18:57:40.900Z,3.98
2018-12-11T18:59:44.450Z,4.22
2018-12-11T19:01:47.670Z,4.27
2018-12-11T19:03:51.158Z,2.37
2018-12-11T19:05:54.655Z,4.12
2018-12-11T19:07:58.558Z,3.02
2018-12-11T19:10:02.530Z,3.25
2018-12-11T19:12:06.396Z,4.33
2018-12-11T19:14:09.886Z,6.05
2018-12-11T19:16:13.468Z,4.37
2018-12-11T19:18:17.326Z,6.20
2018-12-11T19:20:20.541Z,3.42
2018-12-11T19:22:24.150Z,3.93
2018-12-11T19:24:32.822Z,5.60
2018-12-11T19:26:36.032Z,4.67
2018-12-11T19:28:39.550Z,4.72
2018-12-11T19:30:43.207Z,6.58
2018-12-11T19:32:46.394Z,3.13
2018-12-11T19:34:49.899Z,5.28
2018-12-11T19:36:53.423Z,3.67
2018-12-11T19:38:56.638Z,3.50
2018-12-11T19:41:00.164Z,3.70
2018-12-11T19:43:06.985Z,4.90
2018-12-11T19:45:09.676Z,3.92
2018-12-11T19:47:12.966Z,3.05
2018-12-11T19:49:16.133Z,2.50
2018-12-11T19:51:19.630Z,6.03
2018-12-11T19:53:23.142Z,3.37
2018-12-11T19:55:26.399Z,1.80
2018-12-11T19:57:29.723Z,3.50
2018-12-11T19:59:33.333Z,3.58
2018-12-11T20:01:36.603Z,6.97
2018-12-11T20:03:40.714Z,3.90
2018-12-11T20:05:43.906Z,2.50
2018-12-11T20:07:47.868Z,6.70
2018-12-11T20:09:57.017Z,3.53
2018-12-11T20:12:00.431Z,3.90
2018-12-11T20:14:04.445Z,2.80
2018-12-11T20:16:07.963Z,3.05
2018-12-11T20:18:12.947Z,4.05
2018-12-11T20:20:23.854Z,4.30
2018-12-11T20:22:28.807Z,3.50
2018-12-11T20:24:33.034Z,4.50
2018-12-11T20:26:39.269Z,4.03
2018-12-11T20:28:42.342Z,3.52
2018-12-11T20:30:45.842Z,3.30
2018-12-11T20:32:49.062Z,2.40
2018-12-11T20:34:52.322Z,4.53
2018-12-11T20:36:55.798Z,3.15
2018-12-11T20:39:02.369Z,3.58
2018-12-11T20:41:05.871Z,3.10
2018-12-11T20:43:09.637Z,6.70
2018-12-11T20:45:13.266Z,5.93
2018-12-11T20:47:16.708Z,3.45
2018-12-11T20:49:19.958Z,3.42
2018-12-11T20:51:23.519Z,5.15
2018-12-11T20:53:27.539Z,3.80
2018-12-11T20:55:31.000Z,5.47
2018-12-11T20:57:34.243Z,5.42
2018-12-11T20:59:38.356Z,4.45
2018-12-11T21:01:42.175Z,5.70
2018-12-11T21:03:45.650Z,4.50
2018-12-11T21:05:49.023Z,4.93
2018-12-11T21:07:52.534Z,5.83
2018-12-11T21:09:56.010Z,5.05
2018-12-11T21:11:59.488Z,4.75
2018-12-11T21:14:03.562Z,3.87
2018-12-11T21:16:10.978Z,4.95
2018-12-11T21:18:12.882Z,6.17
2018-12-11T21:20:16.373Z,5.70
2018-12-11T21:22:19.667Z,5.20
2018-12-11T21:24:23.759Z,9.30
2018-12-11T21:26:28.074Z,8.85
2018-12-11T21:28:31.807Z,7.22
2018-12-11T21:30:35.029Z,4.90
2018-12-11T21:32:38.548Z,5.67
2018-12-11T21:34:42.387Z,5.70
2018-12-11T21:36:46.407Z,6.33
2018-12-11T21:38:50.078Z,4.62
2018-12-11T21:40:53.297Z,5.62
2018-12-11T21:42:56.546Z,4.40
2018-12-11T21:45:00.385Z,5.37
2018-12-11T21:47:04.343Z,5.42
2018-12-11T21:49:07.788Z,4.33
2018-12-11T21:51:11.345Z,4.42
2018-12-11T21:53:14.854Z,6.80
2018-12-11T21:55:18.137Z,5.33
2018-12-11T21:57:21.946Z,6.25
2018-12-11T21:59:26.192Z,4.17
2018-12-11T22:01:29.882Z,4.83
2018-12-11T22:03:33.870Z,4.72
2018-12-11T22:05:37.623Z,6.00
2018-12-11T22:07:41.098Z,4.90
2018-12-11T22:09:46.578Z,6.30
2018-12-11T22:11:49.799Z,6.10
2018-12-11T22:13:53.297Z,4.83
2018-12-11T22:15:56.754Z,5.20
2018-12-11T22:18:00.506Z,6.97
2018-12-11T22:20:05.702Z,6.35
2018-12-11T22:22:09.298Z,5.40
2018-12-11T22:24:13.168Z,4.95
2018-12-11T22:26:16.434Z,6.80
2018-12-11T22:28:20.212Z,5.50
2018-12-11T22:30:23.732Z,2.40
2018-12-11T22:32:27.331Z,6.45
2018-12-11T22:34:31.278Z,3.40
2018-12-11T22:36:35.597Z,4.78
2018-12-11T22:38:39.764Z,4.83
2018-12-11T22:40:43.249Z,6.10
2018-12-11T22:42:46.783Z,3.83
2018-12-11T22:44:50.680Z,5.35
2018-12-11T22:46:54.553Z,4.03
2018-12-11T22:48:59.303Z,4.58
2018-12-11T22:51:03.094Z,4.55
2018-12-11T22:53:06.986Z,5.15
2018-12-11T22:55:10.930Z,6.72
2018-12-11T22:57:14.603Z,7.27
2018-12-11T22:59:18.150Z,5.03
2018-12-11T23:01:22.168Z,5.83
2018-12-11T23:03:25.423Z,4.93
2018-12-11T23:05:29.123Z,3.50
2018-12-11T23:07:32.579Z,3.00
2018-12-11T23:09:35.805Z,4.43
2018-12-11T23:11:39.586Z,4.08
2018-12-11T23:13:42.899Z,6.00
2018-12-11T23:15:46.422Z,3.85
2018-12-11T23:17:50.339Z,4.42
2018-12-11T23:19:53.851Z,7.03
2018-12-11T23:21:57.747Z,6.33
2018-12-11T23:24:01.496Z,6.22
2018-12-11T23:26:04.974Z,5.03
2018-12-11T23:28:08.457Z,5.40
2018-12-11T23:30:13.332Z,4.40
2018-12-11T23:32:16.811Z,2.80
2018-12-11T23:34:21.020Z,2.85
2018-12-11T23:36:24.517Z,3.42
2018-12-11T23:38:28.003Z,4.55
2018-12-11T23:40:31.191Z,4.83
2018-12-11T23:42:34.426Z,5.47
2018-12-11T23:44:37.984Z,4.20
2018-12-11T23:46:42.047Z,4.15
2018-12-11T23:48:45.654Z,7.42
2018-12-11T23:50:49.176Z,3.45
2018-12-11T23:52:53.116Z,2.83
2018-12-11T23:54:56.640Z,3.72
2018-12-11T23:56:59.930Z,4.00
2018-12-11T23:59:03.555Z,4.23
